Time;durP1;ratioP1;P1;durP2;ratioP2;P2;SDS_P1;SDS_P2;PMS_P1;PMS_P2;Temp;Humidity;BMP_temperature;BMP_pressure;BME280_temperature;BME280_humidity;BME280_pressure;Samples;Min_cycle;Max_cycle;Signal;HPM_P1;HPM_P2
2024/02/25 00:01:38;;;;;;;2.38;0.98;;;5.40;99.90;;;;;;4974470;28;20068;-74
2024/02/25 00:04:04;;;;;;;1.23;0.40;;;5.40;99.90;;;;;;4975794;28;20033;-74
2024/02/25 00:06:31;;;;;;;2.63;0.65;;;5.40;99.90;;;;;;4956734;28;20476;-74
2024/02/25 00:08:57;;;;;;;3.35;0.70;;;5.50;99.90;;;;;;4997002;28;20033;-74
2024/02/25 00:11:23;;;;;;;3.08;0.50;;;5.50;99.90;;;;;;4997306;28;20402;-74
2024/02/25 00:13:50;;;;;;;2.28;0.60;;;5.50;99.90;;;;;;4988403;28;20038;-74
2024/02/25 00:16:16;;;;;;;2.00;0.63;;;5.50;99.90;;;;;;4972514;28;22008;-74
2024/02/25 00:18:43;;;;;;;2.42;0.50;;;5.50;99.90;;;;;;4991110;28;20079;-74
2024/02/25 00:21:09;;;;;;;4.15;0.50;;;5.50;99.90;;;;;;4989163;28;20060;-74
2024/02/25 00:23:35;;;;;;;1.25;0.50;;;5.50;99.90;;;;;;4990318;28;20041;-75
2024/02/25 00:26:03;;;;;;;3.42;0.60;;;5.50;99.90;;;;;;4981869;28;20494;-74
2024/02/25 00:28:29;;;;;;;1.77;0.50;;;5.50;99.90;;;;;;4981975;28;20030;-75
2024/02/25 00:30:56;;;;;;;3.13;0.75;;;5.60;99.90;;;;;;4989461;28;20033;-74
2024/02/25 00:33:23;;;;;;;1.60;0.40;;;5.60;99.90;;;;;;4986668;28;20416;-74
2024/02/25 00:35:49;;;;;;;1.75;0.45;;;5.60;99.90;;;;;;4991769;28;20030;-74
2024/02/25 00:38:16;;;;;;;2.35;0.50;;;5.60;99.90;;;;;;5019949;28;20025;-75
2024/02/25 00:40:42;;;;;;;3.08;0.60;;;5.60;99.90;;;;;;4969850;28;20037;-74
2024/02/25 00:43:09;;;;;;;3.30;0.60;;;5.60;99.90;;;;;;4993902;28;22623;-74
2024/02/25 00:45:35;;;;;;;2.03;0.60;;;5.60;99.90;;;;;;4995240;28;20040;-74
2024/02/25 00:48:01;;;;;;;1.95;0.47;;;5.60;99.90;;;;;;4972661;28;20052;-74
2024/02/25 00:50:28;;;;;;;2.08;0.60;;;5.60;99.90;;;;;;4958842;28;20041;-74
2024/02/25 00:52:54;;;;;;;1.55;0.57;;;5.60;99.90;;;;;;4956855;28;20056;-74
2024/02/25 00:55:22;;;;;;;1.98;0.50;;;5.70;99.90;;;;;;4972408;28;20143;-74
2024/02/25 00:57:48;;;;;;;3.40;0.68;;;5.70;99.90;;;;;;4990118;28;20392;-75
2024/02/25 01:00:18;;;;;;;1.52;0.40;;;5.70;99.90;;;;;;4979983;28;20040;-75
2024/02/25 01:02:46;;;;;;;3.40;0.40;;;5.70;99.90;;;;;;4977407;28;20044;-74
2024/02/25 01:05:13;;;;;;;2.33;0.50;;;5.70;99.90;;;;;;4971512;28;20033;-74
2024/02/25 01:07:39;;;;;;;2.45;0.60;;;5.70;99.90;;;;;;4972034;28;20678;-74
2024/02/25 01:10:06;;;;;;;1.80;0.50;;;5.60;99.90;;;;;;4972161;28;20045;-74
2024/02/25 01:12:33;;;;;;;1.67;0.65;;;5.60;99.90;;;;;;4973436;28;20048;-75
2024/02/25 01:14:59;;;;;;;2.90;0.50;;;5.60;99.90;;;;;;4980854;28;20485;-74
2024/02/25 01:17:26;;;;;;;2.28;0.60;;;5.60;99.90;;;;;;4980048;28;20030;-74
2024/02/25 01:19:52;;;;;;;1.65;0.55;;;5.60;99.90;;;;;;4975495;28;20531;-74
2024/02/25 01:22:19;;;;;;;5.13;0.70;;;5.60;99.90;;;;;;4989557;28;20620;-74
2024/02/25 01:24:45;;;;;;;3.63;0.80;;;5.50;99.90;;;;;;4972018;28;20042;-74
2024/02/25 01:27:13;;;;;;;1.98;0.43;;;5.50;99.90;;;;;;4948047;28;20057;-74
2024/02/25 01:29:39;;;;;;;2.13;0.70;;;5.50;99.90;;;;;;4971050;28;20037;-74
2024/02/25 01:32:05;;;;;;;2.55;0.63;;;5.50;99.90;;;;;;4977742;28;20041;-74
2024/02/25 01:34:32;;;;;;;2.00;0.70;;;5.50;99.90;;;;;;4993757;28;20499;-74
2024/02/25 01:36:58;;;;;;;1.60;0.60;;;5.50;99.90;;;;;;4960286;28;20026;-74
2024/02/25 01:39:25;;;;;;;1.88;0.50;;;5.50;99.90;;;;;;4973703;28;20041;-75
2024/02/25 01:41:53;;;;;;;1.90;0.47;;;5.50;99.90;;;;;;4968532;28;20485;-75
2024/02/25 01:44:19;;;;;;;2.25;0.65;;;5.50;99.90;;;;;;4971220;28;20518;-75
2024/02/25 01:46:46;;;;;;;2.60;0.70;;;5.50;99.90;;;;;;4984607;28;20044;-74
2024/02/25 01:49:14;;;;;;;3.55;1.00;;;5.50;99.90;;;;;;4974207;28;20048;-74
2024/02/25 01:51:42;;;;;;;2.75;0.70;;;5.50;99.90;;;;;;5003468;28;20380;-74
2024/02/25 01:54:09;;;;;;;4.72;1.10;;;5.50;99.90;;;;;;4985712;28;20080;-74
2024/02/25 01:56:37;;;;;;;2.72;0.80;;;5.50;99.90;;;;;;4980544;28;20034;-73
2024/02/25 01:59:04;;;;;;;4.03;0.90;;;5.50;99.90;;;;;;4983229;28;20419;-73
2024/02/25 02:01:36;;;;;;;3.55;0.90;;;5.50;99.90;;;;;;4980272;28;20044;-73
2024/02/25 02:04:03;;;;;;;2.33;0.82;;;5.50;99.90;;;;;;4967184;28;20044;-74
2024/02/25 02:06:33;;;;;;;2.65;1.00;;;5.50;99.90;;;;;;4983787;28;20045;-73
2024/02/25 02:09:00;;;;;;;3.33;0.90;;;5.50;99.90;;;;;;4990856;28;20388;-73
2024/02/25 02:11:27;;;;;;;3.08;0.90;;;5.50;99.90;;;;;;4972058;28;20048;-73
2024/02/25 02:13:54;;;;;;;4.22;0.93;;;5.50;99.90;;;;;;4970167;28;20696;-73
2024/02/25 02:16:20;;;;;;;3.85;0.65;;;5.50;99.90;;;;;;4982918;28;20028;-73
2024/02/25 02:18:47;;;;;;;3.22;1.23;;;5.50;99.90;;;;;;4988062;28;20033;-74
2024/02/25 02:21:18;;;;;;;2.67;0.80;;;5.60;99.90;;;;;;4975372;28;20022;-73
2024/02/25 02:23:45;;;;;;;2.88;0.80;;;5.60;99.90;;;;;;4988057;28;20465;-74
2024/02/25 02:26:12;;;;;;;2.58;0.75;;;5.60;99.90;;;;;;4974338;28;20501;-73
2024/02/25 02:28:38;;;;;;;2.50;0.77;;;5.60;99.90;;;;;;4993397;28;20040;-72
2024/02/25 02:31:05;;;;;;;2.13;0.80;;;5.60;99.90;;;;;;4987618;28;20052;-73
2024/02/25 02:33:31;;;;;;;4.60;0.60;;;5.60;99.90;;;;;;4973179;28;20029;-73
2024/02/25 02:35:58;;;;;;;3.30;0.75;;;5.60;99.90;;;;;;4973896;28;20044;-73
2024/02/25 02:38:24;;;;;;;3.60;0.77;;;5.70;99.90;;;;;;4987771;28;20029;-73
2024/02/25 02:40:51;;;;;;;4.10;0.85;;;5.70;99.90;;;;;;4986220;28;20048;-73
2024/02/25 02:43:17;;;;;;;2.45;0.90;;;5.70;99.90;;;;;;4990928;28;20056;-73
2024/02/25 02:45:43;;;;;;;1.52;0.60;;;5.70;99.90;;;;;;4978516;28;20043;-73
2024/02/25 02:48:10;;;;;;;1.45;0.50;;;5.70;99.90;;;;;;4974714;28;20642;-73
2024/02/25 02:50:37;;;;;;;4.50;0.90;;;5.70;99.90;;;;;;4954962;28;20029;-73
2024/02/25 02:53:04;;;;;;;3.42;0.70;;;5.70;99.90;;;;;;4987665;28;20033;-74
2024/02/25 02:55:32;;;;;;;4.05;0.80;;;5.70;99.90;;;;;;4970342;28;20395;-73
2024/02/25 02:57:58;;;;;;;2.45;0.80;;;5.80;99.90;;;;;;4998692;28;20038;-74
2024/02/25 03:00:24;;;;;;;2.47;0.85;;;5.80;99.90;;;;;;4984299;28;20052;-73
2024/02/25 03:02:51;;;;;;;5.72;1.35;;;5.70;99.90;;;;;;4994787;28;20487;-73
2024/02/25 03:05:17;;;;;;;2.30;0.70;;;5.80;99.90;;;;;;4978503;28;20480;-74
2024/02/25 03:07:48;;;;;;;4.65;0.90;;;5.80;99.90;;;;;;4991058;28;20025;-74
2024/02/25 03:10:18;;;;;;;3.42;1.23;;;5.80;99.90;;;;;;4967515;28;20559;-74
2024/02/25 03:12:45;;;;;;;4.68;1.27;;;5.80;99.90;;;;;;4982931;28;20068;-73
2024/02/25 03:15:14;;;;;;;3.20;0.73;;;5.80;99.90;;;;;;4950872;28;20053;-74
2024/02/25 03:17:41;;;;;;;1.90;0.65;;;5.80;99.90;;;;;;4970464;28;20052;-73
2024/02/25 03:20:08;;;;;;;2.40;0.80;;;5.80;99.90;;;;;;4976684;28;20458;-74
2024/02/25 03:22:35;;;;;;;2.30;1.00;;;5.80;99.90;;;;;;4979825;28;20420;-74
2024/02/25 03:25:08;;;;;;;1.88;0.70;;;5.80;99.90;;;;;;4997940;28;20480;-73
2024/02/25 03:27:36;;;;;;;1.70;0.52;;;5.90;99.90;;;;;;4993477;28;20033;-74
2024/02/25 03:30:09;;;;;;;1.30;0.70;;;5.90;99.90;;;;;;5010505;28;20029;-74
2024/02/25 03:32:36;;;;;;;2.67;0.77;;;5.90;99.90;;;;;;4993040;28;20037;-74
2024/02/25 03:35:03;;;;;;;2.75;0.88;;;5.90;99.90;;;;;;5024303;28;20471;-74
2024/02/25 03:37:30;;;;;;;1.13;0.63;;;5.90;99.90;;;;;;4976627;28;21330;-74
2024/02/25 03:39:56;;;;;;;1.65;0.70;;;5.90;99.90;;;;;;4978127;28;20038;-73
2024/02/25 03:42:23;;;;;;;2.50;0.70;;;5.90;99.90;;;;;;4997871;28;20041;-73
2024/02/25 03:44:49;;;;;;;3.45;0.88;;;5.90;99.90;;;;;;4992491;28;20034;-73
2024/02/25 03:47:16;;;;;;;2.95;0.90;;;5.90;99.90;;;;;;4956712;28;20116;-75
2024/02/25 03:49:42;;;;;;;4.10;0.70;;;5.90;99.90;;;;;;4990959;28;20049;-74
2024/02/25 03:52:09;;;;;;;1.40;0.70;;;5.90;99.90;;;;;;4993434;28;20033;-73
2024/02/25 03:54:35;;;;;;;2.03;0.77;;;5.90;99.90;;;;;;4973284;28;20046;-74
2024/02/25 03:57:02;;;;;;;3.25;0.80;;;5.90;99.90;;;;;;4992185;28;20038;-74
2024/02/25 03:59:29;;;;;;;2.08;0.98;;;5.90;99.90;;;;;;4984173;28;20041;-74
2024/02/25 04:01:55;;;;;;;3.13;0.82;;;5.90;99.90;;;;;;4999298;28;20503;-74
2024/02/25 04:04:22;;;;;;;2.35;0.80;;;5.90;99.90;;;;;;4985958;28;20025;-74
2024/02/25 04:06:48;;;;;;;1.88;0.68;;;5.90;99.90;;;;;;4989961;28;20067;-74
2024/02/25 04:09:14;;;;;;;2.78;0.95;;;5.90;99.90;;;;;;4973563;28;20038;-74
2024/02/25 04:11:41;;;;;;;2.30;0.88;;;6.00;99.90;;;;;;4973107;28;20052;-73
2024/02/25 04:14:08;;;;;;;1.60;0.63;;;5.90;99.90;;;;;;4977521;28;21979;-74
2024/02/25 04:16:34;;;;;;;1.73;0.60;;;6.00;99.90;;;;;;4989782;28;20044;-73
2024/02/25 04:19:01;;;;;;;2.20;0.70;;;5.90;99.90;;;;;;4964898;28;20044;-73
2024/02/25 04:21:27;;;;;;;1.00;0.60;;;5.90;99.90;;;;;;4996232;28;20495;-73
2024/02/25 04:23:54;;;;;;;1.83;0.70;;;5.90;99.90;;;;;;4992660;28;20029;-73
2024/02/25 04:26:20;;;;;;;1.85;0.60;;;5.90;99.90;;;;;;4972205;28;20041;-74
2024/02/25 04:28:46;;;;;;;1.08;0.50;;;5.90;99.90;;;;;;4992250;28;20500;-73
2024/02/25 04:31:13;;;;;;;2.63;0.70;;;5.90;99.90;;;;;;4987935;28;20396;-74
2024/02/25 04:33:39;;;;;;;1.58;0.65;;;5.90;99.90;;;;;;4973835;28;20241;-74
2024/02/25 04:36:05;;;;;;;1.00;0.60;;;5.90;99.90;;;;;;4974735;28;20044;-74
2024/02/25 04:38:32;;;;;;;1.80;0.70;;;5.90;99.90;;;;;;5012452;28;20029;-74
2024/02/25 04:40:59;;;;;;;1.02;0.60;;;5.90;99.90;;;;;;4978596;28;20575;-74
2024/02/25 04:43:25;;;;;;;1.35;0.70;;;5.90;99.90;;;;;;4970886;28;20053;-74
2024/02/25 04:45:51;;;;;;;0.80;0.60;;;5.90;99.90;;;;;;4970000;28;20052;-74
2024/02/25 04:48:18;;;;;;;0.68;0.45;;;5.90;99.90;;;;;;4970556;28;20041;-74
2024/02/25 04:50:44;;;;;;;1.20;0.70;;;5.90;99.90;;;;;;4991830;28;20060;-74
2024/02/25 04:53:10;;;;;;;1.13;0.80;;;5.90;99.90;;;;;;4989234;28;20365;-74
2024/02/25 04:55:37;;;;;;;1.23;0.60;;;5.90;99.90;;;;;;4978116;28;20040;-75
2024/02/25 04:58:07;;;;;;;1.20;0.75;;;6.00;99.90;;;;;;5008523;28;20033;-74
2024/02/25 05:00:33;;;;;;;0.90;0.73;;;5.90;99.90;;;;;;4976959;28;20036;-73
2024/02/25 05:03:01;;;;;;;1.00;0.70;;;5.90;99.90;;;;;;4988144;28;20388;-74
2024/02/25 05:05:27;;;;;;;1.30;0.70;;;5.90;99.90;;;;;;4988186;28;20049;-73
2024/02/25 05:07:53;;;;;;;1.35;0.60;;;5.90;99.90;;;;;;4988863;28;20947;-74
2024/02/25 05:10:20;;;;;;;2.28;1.10;;;5.90;99.90;;;;;;4991128;28;20041;-75
2024/02/25 05:12:46;;;;;;;1.38;0.80;;;5.90;99.90;;;;;;4996023;28;20376;-74
2024/02/25 05:15:13;;;;;;;1.00;0.60;;;5.90;99.90;;;;;;4998515;28;20344;-74
2024/02/25 05:17:39;;;;;;;1.40;0.63;;;5.90;99.90;;;;;;5006316;28;20040;-74
2024/02/25 05:20:06;;;;;;;1.48;0.77;;;5.90;99.90;;;;;;4973138;28;20044;-74
2024/02/25 05:22:32;;;;;;;0.80;0.55;;;5.90;99.90;;;;;;4993175;28;20025;-74
2024/02/25 05:24:59;;;;;;;1.05;0.80;;;5.90;99.90;;;;;;4989336;28;20673;-73
2024/02/25 05:27:29;;;;;;;1.80;0.88;;;5.90;99.90;;;;;;4990691;28;20044;-74
2024/02/25 05:29:55;;;;;;;1.20;0.88;;;5.90;99.90;;;;;;4991066;28;20377;-74
2024/02/25 05:32:22;;;;;;;1.00;0.80;;;5.90;99.90;;;;;;4980639;28;20535;-74
2024/02/25 05:34:48;;;;;;;1.02;0.60;;;5.90;99.90;;;;;;4999091;28;20032;-74
2024/02/25 05:37:18;;;;;;;1.23;0.73;;;5.90;99.90;;;;;;4978561;28;20036;-74
2024/02/25 05:39:44;;;;;;;0.90;0.60;;;5.90;99.90;;;;;;4989897;28;20611;-74
2024/02/25 05:42:10;;;;;;;2.33;0.80;;;5.90;99.90;;;;;;4989264;28;20037;-74
2024/02/25 05:44:37;;;;;;;1.42;0.70;;;5.90;99.90;;;;;;4972039;28;20671;-74
2024/02/25 05:47:03;;;;;;;1.52;0.77;;;5.90;99.90;;;;;;4986475;28;20037;-74
2024/02/25 05:49:29;;;;;;;1.02;0.70;;;5.90;99.90;;;;;;5006255;28;20045;-74
2024/02/25 05:51:56;;;;;;;1.85;0.75;;;5.90;99.90;;;;;;4964824;28;20049;-75
2024/02/25 05:54:22;;;;;;;2.45;0.80;;;5.90;99.90;;;;;;4978048;28;20033;-73
2024/02/25 05:56:49;;;;;;;1.15;0.68;;;5.90;99.90;;;;;;4987344;28;20404;-74
2024/02/25 05:59:16;;;;;;;1.23;0.70;;;5.90;99.90;;;;;;4974132;28;20036;-74
2024/02/25 06:01:49;;;;;;;1.23;0.52;;;5.90;99.90;;;;;;4986920;28;20492;-75
2024/02/25 06:04:16;;;;;;;1.23;0.95;;;5.90;99.90;;;;;;4987987;28;20030;-74
2024/02/25 06:06:49;;;;;;;1.00;0.80;;;5.90;99.90;;;;;;4970613;28;20036;-74
2024/02/25 06:09:16;;;;;;;;;;;5.90;99.90;;;;;;4979939;28;20041;-74
2024/02/25 06:11:42;;;;;;;2.33;0.73;;;6.00;99.90;;;;;;4995417;28;20287;-74
2024/02/25 06:14:08;;;;;;;1.23;0.85;;;5.90;99.90;;;;;;4970081;28;20041;-74
2024/02/25 06:16:35;;;;;;;1.40;1.00;;;5.90;99.90;;;;;;4984299;28;20037;-74
2024/02/25 06:19:01;;;;;;;1.10;0.77;;;6.00;99.90;;;;;;4970105;28;20037;-74
2024/02/25 06:21:28;;;;;;;1.20;0.88;;;6.00;99.90;;;;;;5001083;28;20078;-73
2024/02/25 06:23:54;;;;;;;1.15;0.90;;;6.00;99.90;;;;;;4984002;28;20048;-74
2024/02/25 06:26:20;;;;;;;1.40;0.90;;;6.00;99.90;;;;;;4994270;28;20037;-75
2024/02/25 06:28:47;;;;;;;1.35;1.00;;;6.00;99.90;;;;;;4996589;28;20496;-74
2024/02/25 06:31:13;;;;;;;1.30;0.90;;;6.00;99.90;;;;;;4970994;28;20040;-74
2024/02/25 06:33:40;;;;;;;1.40;1.00;;;6.00;99.90;;;;;;4998500;28;20048;-74
2024/02/25 06:36:07;;;;;;;1.55;1.17;;;6.00;99.90;;;;;;4978275;28;21071;-74
2024/02/25 06:38:35;;;;;;;2.10;1.50;;;6.00;99.90;;;;;;4968909;28;20041;-73
2024/02/25 06:41:02;;;;;;;3.08;1.75;;;6.00;99.90;;;;;;4967051;28;20038;-74
2024/02/25 06:43:28;;;;;;;2.40;1.45;;;6.00;99.90;;;;;;4987796;28;20064;-73
2024/02/25 06:45:54;;;;;;;1.73;1.05;;;6.00;99.90;;;;;;5011476;28;20049;-74
2024/02/25 06:48:21;;;;;;;2.70;1.55;;;6.00;99.90;;;;;;5024709;28;20041;-75
2024/02/25 06:50:48;;;;;;;2.00;1.15;;;6.00;99.90;;;;;;4987657;28;20045;-74
2024/02/25 06:53:14;;;;;;;1.80;1.60;;;6.00;99.90;;;;;;4972174;28;20479;-75
2024/02/25 06:55:40;;;;;;;3.38;1.48;;;6.00;99.90;;;;;;4988266;28;20044;-74
2024/02/25 06:58:07;;;;;;;3.78;2.08;;;6.00;99.90;;;;;;4971788;28;20048;-74
2024/02/25 07:00:37;;;;;;;2.22;1.73;;;6.00;99.90;;;;;;4991141;28;20128;-74
2024/02/25 07:03:03;;;;;;;2.28;1.95;;;6.00;99.90;;;;;;4997479;28;20057;-73
2024/02/25 07:05:29;;;;;;;2.20;1.80;;;6.00;99.90;;;;;;4978431;28;20033;-75
2024/02/25 07:07:56;;;;;;;2.35;1.73;;;6.00;99.90;;;;;;4987159;28;20041;-74
2024/02/25 07:10:22;;;;;;;2.30;2.08;;;6.00;99.90;;;;;;4988237;28;20037;-75
2024/02/25 07:12:48;;;;;;;4.35;2.13;;;6.00;99.90;;;;;;4989500;28;20041;-74
2024/02/25 07:15:15;;;;;;;2.72;2.17;;;6.10;99.90;;;;;;4971398;28;20045;-73
2024/02/25 07:17:41;;;;;;;2.80;2.60;;;6.10;99.90;;;;;;4990117;28;20508;-73
2024/02/25 07:20:08;;;;;;;2.47;2.15;;;6.10;99.90;;;;;;4983168;28;20498;-74
2024/02/25 07:22:34;;;;;;;2.88;1.92;;;6.10;99.90;;;;;;4980671;28;20053;-74
2024/02/25 07:25:00;;;;;;;2.53;2.03;;;6.00;99.90;;;;;;4984602;28;20476;-74
2024/02/25 07:27:27;;;;;;;2.63;1.95;;;6.00;99.90;;;;;;4954458;28;20686;-75
2024/02/25 07:29:53;;;;;;;2.42;2.17;;;6.10;99.90;;;;;;4986839;28;20048;-74
2024/02/25 07:32:19;;;;;;;2.05;1.52;;;6.10;99.90;;;;;;4972358;28;20473;-76
2024/02/25 07:34:46;;;;;;;1.95;1.73;;;6.10;99.90;;;;;;4987297;28;20037;-75
2024/02/25 07:37:12;;;;;;;3.22;2.92;;;6.10;99.90;;;;;;4993200;28;20036;-75
2024/02/25 07:39:38;;;;;;;3.10;2.67;;;6.20;99.90;;;;;;4999665;28;20751;-76
2024/02/25 07:42:05;;;;;;;3.45;3.10;;;6.20;99.90;;;;;;5001073;28;20052;-76
2024/02/25 07:44:31;;;;;;;3.85;3.45;;;6.20;99.90;;;;;;4991552;28;20033;-77
2024/02/25 07:46:58;;;;;;;4.07;3.10;;;6.20;99.90;;;;;;4972426;28;20037;-76
2024/02/25 07:49:24;;;;;;;2.80;2.55;;;6.20;99.90;;;;;;4992531;28;20053;-76
2024/02/25 07:51:50;;;;;;;4.72;3.00;;;6.20;99.90;;;;;;4990015;28;20299;-76
2024/02/25 07:54:17;;;;;;;3.30;3.00;;;6.30;99.90;;;;;;4974783;28;20882;-76
2024/02/25 07:56:43;;;;;;;4.50;4.10;;;6.30;99.90;;;;;;4981485;28;20392;-76
2024/02/25 07:59:10;;;;;;;5.53;5.03;;;6.30;99.90;;;;;;4995151;28;20029;-76
2024/02/25 08:01:37;;;;;;;4.53;4.13;;;6.30;99.90;;;;;;4986321;28;20380;-76
2024/02/25 08:04:04;;;;;;;4.90;3.40;;;6.30;99.90;;;;;;4969821;28;21479;-76
2024/02/25 08:06:31;;;;;;;5.82;3.97;;;6.40;99.90;;;;;;4971692;28;20420;-76
2024/02/25 08:08:58;;;;;;;3.90;3.08;;;6.40;99.90;;;;;;4989432;28;21176;-76
2024/02/25 08:11:24;;;;;;;4.80;3.85;;;6.40;99.90;;;;;;4990981;28;20515;-76
2024/02/25 08:13:51;;;;;;;3.20;2.55;;;6.50;99.90;;;;;;5001234;28;20044;-76
2024/02/25 08:16:17;;;;;;;3.50;2.75;;;6.50;99.90;;;;;;4981030;28;20037;-76
2024/02/25 08:18:47;;;;;;;3.50;3.20;;;6.50;99.90;;;;;;4976657;28;20349;-76
2024/02/25 08:21:14;;;;;;;7.32;4.65;;;6.50;99.90;;;;;;4988252;28;20067;-76
2024/02/25 08:23:40;;;;;;;4.65;4.25;;;6.50;99.90;;;;;;4972044;28;20038;-76
2024/02/25 08:26:07;;;;;;;4.70;4.30;;;6.60;99.90;;;;;;4988809;28;20037;-76
2024/02/25 08:28:37;;;;;;;4.47;3.80;;;6.60;99.90;;;;;;4987089;28;20022;-76
2024/02/25 08:31:03;;;;;;;5.57;3.75;;;6.60;99.90;;;;;;5003807;28;20033;-76
2024/02/25 08:33:30;;;;;;;4.88;4.32;;;6.70;99.90;;;;;;4995344;28;20049;-76
2024/02/25 08:35:57;;;;;;;3.83;3.42;;;6.70;99.90;;;;;;4997990;28;20619;-76
2024/02/25 08:38:23;;;;;;;4.13;3.33;;;6.70;99.90;;;;;;4988871;28;20048;-76
2024/02/25 08:40:49;;;;;;;4.28;3.88;;;6.80;99.90;;;;;;4987562;28;20529;-76
2024/02/25 08:43:16;;;;;;;4.30;3.80;;;6.80;99.90;;;;;;4973172;28;20041;-76
2024/02/25 08:45:42;;;;;;;5.07;4.60;;;6.90;99.90;;;;;;4969305;28;20034;-76
2024/02/25 08:48:09;;;;;;;5.22;4.05;;;6.80;99.90;;;;;;4972444;28;20056;-76
2024/02/25 08:50:35;;;;;;;4.50;4.10;;;6.90;99.90;;;;;;4964588;28;20041;-76
2024/02/25 08:53:03;;;;;;;4.53;4.13;;;6.90;99.90;;;;;;4979706;28;20034;-76
2024/02/25 08:55:29;;;;;;;3.60;2.95;;;6.90;99.90;;;;;;4971960;28;20044;-76
2024/02/25 08:57:56;;;;;;;2.65;2.45;;;6.90;99.90;;;;;;4954803;28;21393;-76
2024/02/25 09:00:22;;;;;;;2.60;2.35;;;6.90;99.90;;;;;;4972372;28;20029;-76
2024/02/25 09:02:49;;;;;;;3.00;2.15;;;6.90;99.90;;;;;;4986229;28;20033;-76
2024/02/25 09:05:15;;;;;;;2.13;1.92;;;6.80;99.90;;;;;;5020453;28;20030;-76
2024/02/25 09:07:43;;;;;;;3.15;2.17;;;6.80;99.90;;;;;;4998323;28;20037;-75
2024/02/25 09:10:13;;;;;;;3.40;1.85;;;6.80;99.90;;;;;;4998046;28;20499;-76
2024/02/25 09:12:40;;;;;;;1.92;1.60;;;6.80;99.90;;;;;;4987964;28;20033;-76
2024/02/25 09:15:06;;;;;;;3.38;1.95;;;6.90;99.90;;;;;;4969238;28;20044;-76
2024/02/25 09:17:33;;;;;;;2.35;2.00;;;6.90;99.90;;;;;;4972299;28;20657;-76
2024/02/25 09:19:59;;;;;;;2.67;1.65;;;6.90;99.90;;;;;;4989695;28;20045;-76
2024/02/25 09:22:25;;;;;;;3.42;2.40;;;7.00;99.90;;;;;;5004383;28;20044;-76
2024/02/25 09:24:52;;;;;;;4.47;2.92;;;7.00;99.90;;;;;;4999244;28;20034;-76
2024/02/25 09:27:18;;;;;;;2.95;2.70;;;7.00;99.90;;;;;;4997646;28;20045;-76
2024/02/25 09:29:45;;;;;;;5.70;4.38;;;7.10;99.90;;;;;;4992171;28;20033;-76
2024/02/25 09:32:12;;;;;;;3.78;3.38;;;7.10;99.90;;;;;;4989866;28;20044;-76
2024/02/25 09:34:41;;;;;;;3.92;2.97;;;7.10;99.90;;;;;;4971644;28;21199;-76
2024/02/25 09:37:07;;;;;;;3.47;3.17;;;7.20;99.90;;;;;;4954177;28;20037;-76
2024/02/25 09:39:34;;;;;;;3.88;3.53;;;7.30;99.90;;;;;;5003263;28;20037;-76
2024/02/25 09:42:06;;;;;;;3.15;2.90;;;7.40;99.90;;;;;;4997782;28;20053;-76
2024/02/25 09:44:34;;;;;;;4.25;2.88;;;7.50;99.90;;;;;;4980614;28;20033;-76
2024/02/25 09:47:04;;;;;;;4.70;3.92;;;7.60;99.90;;;;;;4954470;28;20048;-76
2024/02/25 09:49:32;;;;;;;4.15;3.78;;;7.60;99.90;;;;;;4987008;28;20683;-76
2024/02/25 09:52:00;;;;;;;3.90;3.17;;;7.60;99.90;;;;;;4988512;28;20272;-76
2024/02/25 09:54:28;;;;;;;3.15;2.85;;;7.50;99.90;;;;;;4988759;28;20428;-76
2024/02/25 09:56:54;;;;;;;4.50;3.60;;;7.50;99.90;;;;;;4998138;28;20041;-76
2024/02/25 09:59:21;;;;;;;3.65;3.13;;;7.60;99.90;;;;;;4979014;28;20668;-76
2024/02/25 10:01:47;;;;;;;5.13;3.55;;;7.70;99.90;;;;;;4955762;28;20048;-76
2024/02/25 10:04:15;;;;;;;3.40;3.10;;;7.70;99.90;;;;;;4975429;28;20037;-76
2024/02/25 10:06:44;;;;;;;3.20;2.67;;;7.80;99.90;;;;;;5001695;28;20045;-76
2024/02/25 10:09:12;;;;;;;5.05;3.13;;;7.80;99.90;;;;;;4971483;28;20044;-76
2024/02/25 10:11:41;;;;;;;4.15;1.98;;;7.80;99.90;;;;;;4976541;28;20043;-76
2024/02/25 10:14:08;;;;;;;2.35;1.60;;;7.80;99.90;;;;;;4995623;28;20037;-76
2024/02/25 10:16:35;;;;;;;3.25;2.00;;;7.80;99.90;;;;;;4973014;28;20041;-76
2024/02/25 10:19:01;;;;;;;4.18;2.17;;;8.00;99.90;;;;;;4972831;28;20037;-76
2024/02/25 10:21:27;;;;;;;2.85;1.80;;;8.10;99.90;;;;;;4969805;28;20038;-76
2024/02/25 10:23:54;;;;;;;4.03;1.98;;;8.30;99.90;;;;;;4972179;28;20437;-76
2024/02/25 10:26:26;;;;;;;2.97;1.75;;;8.40;99.90;;;;;;4990381;28;20514;-76
2024/02/25 10:29:07;;;;;;;2.17;1.50;;;8.60;99.90;;;;;;5012794;28;20025;-75
2024/02/25 10:31:34;;;;;;;2.88;1.92;;;8.80;99.90;;;;;;4987631;28;20029;-76
2024/02/25 10:34:00;;;;;;;2.97;2.22;;;8.90;99.90;;;;;;4979877;28;20048;-75
2024/02/25 10:36:27;;;;;;;2.78;1.50;;;9.00;99.90;;;;;;4974876;28;20041;-76
2024/02/25 10:38:57;;;;;;;4.68;2.55;;;9.10;99.90;;;;;;4992906;28;20033;-76
2024/02/25 10:41:25;;;;;;;2.95;2.67;;;9.10;99.90;;;;;;4977895;28;20025;-76
2024/02/25 10:44:02;;;;;;;3.63;2.85;;;9.20;99.90;;;;;;4958982;28;20025;-76
2024/02/25 10:46:42;;;;;;;4.72;3.28;;;9.30;99.90;;;;;;5014111;28;20511;-75
2024/02/25 10:49:12;;;;;;;3.60;2.97;;;9.30;99.90;;;;;;5001983;28;20070;-76
2024/02/25 10:51:39;;;;;;;4.78;3.65;;;9.40;99.90;;;;;;4992764;28;20017;-75
2024/02/25 10:54:09;;;;;;;5.38;4.00;;;9.40;99.90;;;;;;4960630;28;20116;-76
2024/02/25 10:56:38;;;;;;;5.32;3.65;;;9.40;99.90;;;;;;4989214;28;20046;-75
2024/02/25 10:59:08;;;;;;;4.22;3.05;;;9.40;99.90;;;;;;4959843;28;20042;-74
2024/02/25 11:01:38;;;;;;;4.95;4.30;;;9.40;99.90;;;;;;4978091;28;20060;-76
2024/02/25 11:04:05;;;;;;;4.35;3.17;;;9.40;99.90;;;;;;5001342;28;20056;-76
2024/02/25 11:06:36;;;;;;;4.10;3.65;;;9.40;99.90;;;;;;4998472;28;20025;-75
2024/02/25 11:09:14;;;;;;;5.18;3.75;;;9.40;99.90;;;;;;4993401;28;20044;-75
2024/02/25 11:11:42;;;;;;;4.60;4.20;;;9.40;99.90;;;;;;5007661;28;20044;-75
2024/02/25 11:14:16;;;;;;;4.97;3.40;;;9.40;99.90;;;;;;4991108;28;20029;-77
2024/02/25 11:16:46;;;;;;;4.22;3.00;;;9.50;99.90;;;;;;4991834;28;20042;-76
2024/02/25 11:19:16;;;;;;;3.75;2.63;;;9.50;99.90;;;;;;4985012;28;20036;-75
2024/02/25 11:21:43;;;;;;;3.88;3.53;;;9.40;99.90;;;;;;4985541;28;20026;-75
2024/02/25 11:24:12;;;;;;;3.35;3.05;;;9.40;99.90;;;;;;4994076;28;20825;-77
2024/02/25 11:26:40;;;;;;;4.00;3.70;;;9.40;99.90;;;;;;4970307;28;20041;-76
2024/02/25 11:29:24;;;;;;;4.88;3.67;;;9.50;99.90;;;;;;4971659;28;20674;-77
2024/02/25 11:31:59;;;;;;;4.50;3.20;;;9.40;99.90;;;;;;5009082;28;20551;-77
2024/02/25 11:34:28;;;;;;;5.72;3.50;;;9.40;99.90;;;;;;4995333;28;20035;-77
2024/02/25 11:36:56;;;;;;;5.22;4.47;;;9.30;99.90;;;;;;4983450;28;20036;-77
2024/02/25 11:39:30;;;;;;;3.95;3.60;;;9.30;99.90;;;;;;4977022;28;20021;-76
2024/02/25 11:42:02;;;;;;;4.57;3.15;;;9.20;99.90;;;;;;4990049;28;20575;-77
2024/02/25 11:44:33;;;;;;;4.72;3.90;;;9.20;99.90;;;;;;4992259;28;20049;-76
2024/02/25 11:47:02;;;;;;;3.92;3.55;;;9.10;99.90;;;;;;4989244;28;20388;-76
2024/02/25 11:49:30;;;;;;;3.70;3.40;;;9.20;99.90;;;;;;4997522;28;20041;-76
2024/02/25 11:52:01;;;;;;;4.18;3.78;;;9.20;99.90;;;;;;4985787;28;20029;-77
2024/02/25 11:54:31;;;;;;;4.78;4.38;;;9.30;99.90;;;;;;4994730;28;20034;-77
2024/02/25 11:57:00;;;;;;;7.68;3.88;;;9.30;99.90;;;;;;4973163;28;20029;-77
2024/02/25 11:59:26;;;;;;;4.57;3.00;;;9.30;99.90;;;;;;4972871;28;20472;-77
2024/02/25 12:01:54;;;;;;;4.97;4.03;;;9.40;99.90;;;;;;4958915;28;20048;-77
2024/02/25 12:04:20;;;;;;;3.40;3.08;;;9.30;99.90;;;;;;4960580;28;20457;-77
2024/02/25 12:06:47;;;;;;;5.00;4.47;;;9.40;99.90;;;;;;4995032;28;20104;-76
2024/02/25 12:09:14;;;;;;;4.15;3.50;;;9.40;99.90;;;;;;4981460;28;20040;-77
2024/02/25 12:11:42;;;;;;;4.90;4.05;;;9.50;99.90;;;;;;4973273;28;20041;-78
2024/02/25 12:14:30;;;;;;;5.85;4.18;;;9.70;99.90;;;;;;4991599;28;20037;-77
2024/02/25 12:16:56;;;;;;;5.93;3.65;;;9.80;99.90;;;;;;4973673;28;20052;-77
2024/02/25 12:19:23;;;;;;;5.05;3.80;;;9.90;99.90;;;;;;4976388;28;20468;-76
2024/02/25 12:21:51;;;;;;;4.25;3.60;;;10.00;99.90;;;;;;4993310;28;20034;-77
2024/02/25 12:24:17;;;;;;;5.32;3.70;;;10.10;99.90;;;;;;4996017;28;20038;-76
2024/02/25 12:26:55;;;;;;;4.05;3.47;;;10.20;99.90;;;;;;4997773;28;20441;-77
2024/02/25 12:29:24;;;;;;;3.58;3.17;;;10.40;99.90;;;;;;4971835;28;20037;-76
2024/02/25 12:31:50;;;;;;;7.35;4.07;;;10.50;99.90;;;;;;4957549;28;20322;-76
2024/02/25 12:34:17;;;;;;;4.15;2.75;;;10.60;99.90;;;;;;4987806;28;20724;-76
2024/02/25 12:36:44;;;;;;;4.93;3.42;;;10.60;99.90;;;;;;4988578;28;20051;-77
2024/02/25 12:39:12;;;;;;;5.43;2.83;;;10.60;99.90;;;;;;4993653;28;20025;-76
2024/02/25 12:41:42;;;;;;;4.55;3.30;;;10.70;99.90;;;;;;4999523;28;21149;-76
2024/02/25 12:44:10;;;;;;;2.97;2.42;;;10.70;99.90;;;;;;4998513;28;20038;-77
2024/02/25 12:46:37;;;;;;;2.88;2.33;;;10.80;99.90;;;;;;4989097;28;20045;-76
2024/02/25 12:49:14;;;;;;;2.95;1.77;;;11.20;99.90;;;;;;4957891;28;20404;-77
2024/02/25 12:51:41;;;;;;;2.58;1.77;;;11.60;99.90;;;;;;4991383;28;20029;-75
2024/02/25 12:54:11;;;;;;;4.25;1.95;;;11.90;99.90;;;;;;4972155;28;20368;-75
2024/02/25 12:56:41;;;;;;;4.30;1.45;;;12.80;99.90;;;;;;4996014;28;20048;-77
2024/02/25 12:59:10;;;;;;;2.20;1.08;;;13.70;99.90;;;;;;4998594;28;20594;-77